Latest Weather Observations for Marree Airport

IDS60801

Issued at 10:31 pm CST Friday 17 August 2018 (issued every 10 minutes, with the page automatically refreshed every 10 minutes)

About weather observations | Map of weather stations | Latest weather observations for SA | Other Formats
Station Details ID: 017126 Name: MARREE AERO Lat: -29.66 Lon: 138.07 Height: 50.0 m
Data from the previous 72 hours. | See also: Recent months at Marree Airport
Date/Time
CST
Temp
°C
App
Temp
°C
Dew
Point
°C
Rel
Hum
%
Delta-T
°C
Wind Press
QNH
hPa
Press
MSL
hPa
Rain since
9am
mm
Dir  Spd
km/h
Gust
km/h
Spd
kts
Gust
kts
17/10:30pm 11.5 9.4 -0.9 42 5.0 CALM 0 0 0 0 1017.1 1017.1 0.0
17/10:00pm 13.0 9.9 0.1 41 5.4 N 6 7 3 4 1017.3 1017.3 0.0
17/09:30pm 13.3 9.2 -0.3 39 5.6 NNW 11 11 6 6 1017.5 1017.5 0.0
17/09:00pm 14.4 10.0 0.3 38 6.0 N 13 15 7 8 1017.4 1017.4 0.0
17/08:30pm 14.1 10.1 0.4 39 5.8 NNW 11 11 6 6 1017.4 1017.4 0.0
17/08:00pm 15.0 11.0 0.4 37 6.2 NNW 11 13 6 7 1017.2 1017.2 0.0
17/07:30pm 16.1 11.8 0.7 35 6.7 NW 13 15 7 8 1016.9 1016.9 0.0
17/07:00pm 16.8 12.5 0.9 34 7.0 WNW 13 15 7 8 1016.8 1016.8 0.0
17/06:30pm 18.3 13.6 0.9 31 7.7 WNW 15 17 8 9 1016.5 1016.5 0.0
17/06:00pm 19.8 14.8 1.3 29 8.4 W 17 20 9 11 1016.0 1016.0 0.0
17/05:30pm 21.1 15.5 0.9 26 9.2 W 20 28 11 15 1015.7 1015.7 0.0
17/05:00pm 21.7 16.1 1.4 26 9.4 WNW 20 30 11 16 1015.5 1015.5 0.0
17/04:30pm 21.8 16.3 0.9 25 9.5 WNW 19 26 10 14 1015.5 1015.5 0.0
17/04:00pm 22.0 17.6 0.5 24 9.8 WNW 13 20 7 11 1015.6 1015.6 0.0
17/03:30pm 21.7 17.3 0.3 24 9.7 W 13 20 7 11 1015.7 1015.7 0.0
17/03:00pm 22.1 17.7 0.6 24 9.8 WNW 13 28 7 15 1015.7 1015.7 0.0
17/02:30pm 21.4 17.7 0.0 24 9.6 WNW 9 17 5 9 1016.1 1016.1 0.0
17/02:00pm 20.8 15.5 -0.5 24 9.4 NW 17 24 9 13 1016.5 1016.5 0.0
17/01:30pm 20.6 17.5 -0.1 25 9.2 SW 6 13 3 7 1016.9 1016.9 0.0
17/01:00pm 20.2 16.8 -0.4 25 9.1 WNW 7 17 4 9 1017.5 1017.5 0.0
17/12:30pm 19.4 15.9 -1.1 25 8.8 W 7 13 4 7 1018.2 1018.2 0.0
17/12:00pm 19.3 15.8 -1.2 25 8.8 W 7 13 4 7 1018.6 1018.6 0.0
17/11:30am 18.3 15.4 1.3 32 7.6 NE 6 9 3 5 1019.2 1019.2 0.0
17/11:00am 18.3 15.3 1.8 33 7.5 NNE 7 11 4 6 1019.7 1019.7 0.0
17/10:30am 17.5 14.5 1.9 35 7.0 ENE 7 13 4 7 1020.0 1020.0 0.0
17/10:00am 16.0 13.5 1.3 37 6.5 NE 4 7 2 4 1020.1 1020.1 0.0
17/09:30am 13.3 10.2 1.3 44 5.1 SE 7 9 4 5 1020.0 1020.0 0.0
17/09:00am 11.2 7.6 0.9 49 4.3 SE 9 11 5 6 1020.0 1020.0 0.0
17/08:30am 9.8 6.2 0.9 54 3.6 SE 9 13 5 7 1019.8 1019.8 0.0
17/08:00am 8.1 4.1 0.6 59 3.0 SSE 11 15 6 8 1019.5 1019.5 0.0
17/07:30am 5.1 0.5 -1.1 64 2.3 SSE 13 15 7 8 1019.3 1019.3 0.0
17/07:00am 2.8 -1.7 -3.1 65 2.0 SE 11 13 6 7 1018.9 1018.9 0.0
17/06:30am 3.2 -1.2 -2.7 65 2.0 SE 11 13 6 7 1018.8 1018.8 0.0
17/06:00am 4.3 0.4 -1.7 65 2.2 ESE 9 11 5 6 1018.5 1018.5 0.0
17/05:30am 4.6 0.3 -1.6 64 2.3 SE 11 13 6 7 1018.5 1018.5 0.0
17/05:00am 4.5 0.6 -1.7 64 2.2 SE 9 9 5 5 1018.3 1018.3 0.0
17/04:30am 5.0 1.5 -1.4 63 2.3 SE 7 9 4 5 1018.3 1018.3 0.0
17/04:00am 5.2 1.3 -1.7 61 2.5 SE 9 11 5 6 1018.1 1018.1 0.0
17/03:30am 5.9 2.7 -0.8 62 2.5 ESE 6 7 3 4 1018.1 1018.1 0.0
17/03:00am 6.7 3.3 -0.3 61 2.7 ESE 7 9 4 5 1018.2 1018.2 0.0
17/02:30am 6.5 4.4 -0.9 59 2.8 CALM 0 6 0 3 1018.3 1018.3 0.0
17/02:00am 7.4 4.6 -0.5 57 3.1 ESE 4 9 2 5 1018.5 1018.5 0.0
17/01:30am 7.7 5.6 -0.5 56 3.2 CALM 0 0 0 0 1018.7 1018.7 0.0
17/01:00am 8.5 5.7 -0.5 53 3.5 SSE 4 9 2 5 1018.7 1018.7 0.0
17/12:30am 10.0 6.9 1.4 55 3.6 S 7 9 4 5 1018.7 1018.7 0.0
17/12:00am 10.8 6.6 1.4 52 3.9 S 13 17 7 9 1018.7 1018.7 0.0
 
Date/Time
CST
Temp
°C
App
Temp
°C
Dew
Point
°C
Rel
Hum
%
Delta-T
°C
Wind Press
QNH
hPa
Press
MSL
hPa
Rain since
9am
mm
Dir  Spd
km/h
Gust
km/h
Spd
kts
Gust
kts
16/11:30pm 11.1 6.5 1.4 51 4.1 S 15 17 8 9 1018.6 1018.6 0.0
16/11:00pm 11.6 7.4 1.5 50 4.3 S 13 15 7 8 1018.7 1018.7 0.0
16/10:30pm 11.9 8.0 1.0 47 4.6 S 11 13 6 7 1018.7 1018.7 0.0
16/10:00pm 13.1 9.3 1.8 46 4.9 S 11 13 6 7 1018.5 1018.5 0.0
16/09:30pm 13.5 9.7 1.5 44 5.2 S 11 13 6 7 1018.4 1018.4 0.0
16/09:00pm 13.6 10.2 1.6 44 5.2 SSE 9 11 5 6 1018.1 1018.1 0.0
16/08:30pm 14.3 10.5 1.9 43 5.4 SSE 11 13 6 7 1018.0 1018.0 0.0
16/08:00pm 15.7 12.0 2.2 40 6.0 S 11 13 6 7 1017.8 1017.8 0.0
16/07:30pm 16.6 12.2 2.6 39 6.3 S 15 17 8 9 1017.7 1017.7 0.0
16/07:00pm 17.2 12.1 2.8 38 6.6 S 19 22 10 12 1017.4 1017.4 0.0
16/06:30pm 17.5 13.0 2.3 36 6.9 SSW 15 20 8 11 1017.2 1017.2 0.0
16/06:00pm 17.9 13.4 2.2 35 7.1 SSW 15 20 8 11 1016.8 1016.8 0.0
16/05:30pm 18.3 13.4 1.8 33 7.5 SW 17 22 9 12 1016.6 1016.6 0.0
16/05:00pm 18.7 13.8 1.7 32 7.7 SSW 17 22 9 12 1016.6 1016.6 0.0
16/04:30pm 19.4 14.9 1.9 31 8.0 SW 15 24 8 13 1016.5 1016.5 0.0
16/04:00pm 19.6 14.1 1.6 30 8.2 SW 20 26 11 14 1016.5 1016.5 0.0
16/03:30pm 19.7 14.4 1.7 30 8.2 SSW 19 28 10 15 1016.8 1016.8 0.0
16/03:00pm 19.3 14.0 1.8 31 8.0 SSW 19 26 10 14 1017.0 1017.0 0.0
16/02:30pm 19.6 15.5 2.5 32 7.9 SW 13 24 7 13 1017.0 1017.0 0.0
16/02:00pm 19.0 14.2 2.8 34 7.5 SW 17 24 9 13 1017.3 1017.3 0.0
16/01:30pm 18.4 15.1 2.7 35 7.2 SSW 9 15 5 8 1017.7 1017.7 0.0
16/01:00pm 17.8 13.9 3.3 38 6.7 S 13 20 7 11 1018.2 1018.2 0.0
16/12:30pm 17.5 13.7 3.8 40 6.4 SSE 13 17 7 9 1018.9 1018.9 0.0
16/12:00pm 16.6 12.4 4.0 43 5.9 SSE 15 20 8 11 1019.5 1019.5 0.0
16/11:30am 16.6 12.1 4.0 43 5.9 S 17 24 9 13 1019.9 1019.9 0.0
16/11:00am 16.2 11.7 4.3 45 5.6 S 17 22 9 12 1020.4 1020.4 0.0
16/10:30am 15.7 10.7 4.4 47 5.3 S 20 26 11 14 1020.4 1020.4 0.0
16/10:00am 14.9 10.1 4.9 51 4.7 SSE 19 24 10 13 1020.4 1020.4 0.0
16/09:30am 14.5 9.9 5.6 55 4.2 S 19 26 10 14 1020.4 1020.4 0.0
16/09:00am 13.8 9.1 5.2 56 4.0 S 19 26 10 14 1020.4 1020.4 0.0
16/08:30am 13.5 9.1 4.9 56 4.0 SSE 17 19 9 10 1019.8 1019.8 0.0
16/08:00am 13.3 8.9 5.0 57 3.9 SSE 17 20 9 11 1019.9 1019.9 0.0
16/07:30am 13.0 8.0 4.7 57 3.8 SSE 20 26 11 14 1019.2 1019.2 0.0
16/07:00am 13.1 7.7 4.5 56 3.9 SSE 22 30 12 16 1019.1 1019.1 0.0
16/06:30am 13.4 7.1 4.0 53 4.3 SSE 26 33 14 18 1018.6 1018.6 0.0
16/06:00am 13.9 8.3 5.5 57 4.0 SSE 24 35 13 19 1018.0 1018.0 0.0
16/05:30am 14.1 8.6 5.7 57 4.0 SSE 24 30 13 16 1017.3 1017.3 0.0
16/05:00am 14.5 7.8 5.8 56 4.2 S 30 39 16 21 1017.3 1017.3 0.0
16/04:30am 14.6 8.1 6.7 59 3.8 S 30 35 16 19 1017.2 1017.2 0.0
16/04:00am 15.0 8.6 6.8 58 4.0 S 30 37 16 20 1016.9 1016.9 0.0
16/03:30am 15.3 9.6 6.8 57 4.2 S 26 33 14 18 1017.0 1017.0 0.0
16/03:00am 15.5 9.8 6.8 56 4.3 S 26 33 14 18 1017.0 1017.0 0.0
16/02:30am 15.6 9.2 7.1 57 4.2 S 30 41 16 22 1016.7 1016.7 0.0
16/02:00am 15.7 10.1 7.0 56 4.3 S 26 33 14 18 1016.9 1016.9 0.0
16/01:30am 15.7 10.1 7.0 56 4.3 S 26 30 14 16 1017.2 1017.2 0.0
16/01:00am 15.9 9.9 7.1 56 4.4 S 28 32 15 17 1017.2 1017.2 0.0
16/12:30am 15.9 10.7 7.4 57 4.2 S 24 32 13 17 1017.2 1017.2 0.0
16/12:00am 16.4 11.0 7.9 57 4.3 S 26 35 14 19 1017.3 1017.3 0.0
 
Date/Time
CST
Temp
°C
App
Temp
°C
Dew
Point
°C
Rel
Hum
%
Delta-T
°C
Wind Press
QNH
hPa
Press
MSL
hPa
Rain since
9am
mm
Dir  Spd
km/h
Gust
km/h
Spd
kts
Gust
kts
15/11:30pm 16.7 11.7 7.9 56 4.4 S 24 33 13 18 1017.2 1017.2 0.0
15/11:00pm 17.1 11.2 7.5 53 4.8 S 28 35 15 19 1016.9 1016.9 0.0
15/10:30pm 17.4 11.4 7.2 51 5.1 S 28 39 15 21 1017.0 1017.0 0.0
15/10:00pm 17.1 10.9 6.0 48 5.4 S 28 33 15 18 1017.0 1017.0 0.0
15/09:30pm 17.2 11.1 4.9 44 5.9 S 26 35 14 19 1016.6 1016.6 0.0
15/09:00pm 17.5 11.3 1.9 35 7.0 S 24 28 13 15 1016.5 1016.5 0.0
15/08:30pm 18.2 11.4 0.8 31 7.7 S 26 32 14 17 1016.0 1016.0 0.0
15/08:00pm 16.3 10.8 -5.4 22 8.3 SW 15 17 8 9 1015.6 1015.6 0.0
15/07:30pm 17.4 11.5 -5.8 20 8.9 SSW 17 19 9 10 1015.4 1015.4 0.0
15/07:00pm 18.5 13.0 -5.5 19 9.4 WSW 15 17 8 9 1015.0 1015.0 0.0
15/06:30pm 20.5 15.0 -5.4 17 10.3 WSW 15 17 8 9 1014.7 1014.7 0.0
15/06:00pm 23.4 17.1 -5.6 14 11.9 WSW 19 24 10 13 1014.5 1014.5 0.0
15/05:30pm 25.5 19.0 -6.0 12 13.0 WSW 20 28 11 15 1014.4 1014.4 0.0
15/05:00pm 26.4 20.5 -5.3 12 13.4 WNW 17 20 9 11 1014.2 1014.2 0.0
15/04:30pm 27.0 21.2 -4.8 12 13.6 WNW 17 24 9 13 1014.3 1014.3 0.0
15/04:00pm 26.7 20.5 -5.0 12 13.5 WNW 19 28 10 15 1014.4 1014.4 0.0
15/03:30pm 26.6 19.8 -5.1 12 13.5 WNW 22 32 12 17 1014.7 1014.7 0.0
15/03:00pm 26.0 18.0 -5.6 12 13.2 WNW 28 35 15 19 1015.0 1015.0 0.0
15/02:30pm 26.2 18.6 -5.4 12 13.3 WNW 26 33 14 18 1015.2 1015.2 0.0
15/02:00pm 25.2 17.4 -4.2 14 12.6 NW 28 39 15 21 1015.4 1015.4 0.0
15/01:30pm 25.4 17.5 -5.0 13 12.8 NW 28 52 15 28 1015.8 1015.8 0.0
15/01:00pm 24.7 17.3 -3.6 15 12.2 NW 26 37 14 20 1016.6 1016.6 0.0
15/12:30pm 23.6 15.1 -3.7 16 11.6 NW 32 52 17 28 1017.1 1017.1 0.0
15/12:24pm 24.3 16.2 -3.1 16 11.8 NW 30 52 16 28 1017.2 1017.2 0.0
15/12:00pm 22.5 14.0 -3.7 17 11.0 NW 32 41 17 22 1017.9 1017.9 0.0
15/11:30am 22.4 13.4 -3.1 18 10.8 NW 35 44 19 24 1018.2 1018.2 0.0
15/11:00am 21.2 12.5 -3.3 19 10.3 NW 33 41 18 22 1018.7 1018.7 0.0
15/10:30am 20.0 12.3 -3.0 21 9.6 NNW 28 33 15 18 1019.0 1019.0 0.0
15/10:00am 17.4 10.5 -2.3 26 8.1 NNW 24 30 13 16 1019.3 1019.3 0.0
15/09:30am 15.5 9.1 -2.0 30 7.1 NNW 22 30 12 16 1019.4 1019.4 0.0
15/09:00am 12.8 8.5 -1.9 36 5.8 NNW 11 15 6 8 1019.5 1019.5 0.0
15/08:30am 8.9 5.4 -2.7 44 4.3 NW 6 7 3 4 1019.3 1019.3 0.0
15/08:00am 5.5 3.0 -4.1 50 3.3 CALM 0 0 0 0 1019.5 1019.5 0.0
15/07:30am 3.8 1.2 -5.4 51 3.0 CALM 0 0 0 0 1019.2 1019.2 0.0
15/07:00am 2.8 -0.6 -4.9 57 2.5 SE 4 6 2 3 1019.1 1019.1 0.0
15/06:30am 2.9 -1.4 -5.2 55 2.6 SE 9 11 5 6 1019.0 1019.0 0.0
15/06:00am 3.5 -0.8 -4.4 56 2.6 SE 9 11 5 6 1018.8 1018.8 0.0
15/05:30am 4.0 -1.8 -4.2 55 2.8 SSE 17 20 9 11 1018.8 1018.8 0.0
15/05:00am 5.9 2.2 -4.3 48 3.5 NW 6 7 3 4 1018.6 1018.6 0.0
15/04:30am 3.8 0.4 -5.1 52 2.9 ENE 4 9 2 5 1018.8 1018.8 0.0
15/04:00am 5.5 2.6 -3.8 51 3.2 - 2 9 1 5 1018.6 1018.6 0.0
15/03:30am 7.4 1.3 -2.3 50 3.6 N 20 20 11 11 1018.5 1018.5 0.0
15/03:00am 6.7 2.3 -2.4 52 3.3 NW 11 13 6 7 1019.2 1019.2 0.0
15/02:30am 6.4 2.3 -2.7 52 3.3 NNW 9 11 5 6 1019.3 1019.3 0.0
15/02:00am 7.4 4.0 -1.8 52 3.4 NNW 6 9 3 5 1019.4 1019.4 0.0
15/01:30am 8.2 4.2 -1.9 49 3.8 N 9 13 5 7 1019.6 1019.6 0.0
15/01:00am 8.8 3.8 -1.3 49 3.9 N 15 17 8 9 1019.6 1019.6 0.0
15/12:30am 7.6 2.1 -2.4 49 3.7 NNE 17 20 9 11 1019.8 1019.8 0.0
15/12:00am 8.1 4.6 -2.8 46 4.0 NNE 6 9 3 5 1020.5 1020.5 0.0
 
Date/Time
CST
Temp
°C
App
Temp
°C
Dew
Point
°C
Rel
Hum
%
Delta-T
°C
Wind Press
QNH
hPa
Press
MSL
hPa
Rain since
9am
mm
Dir  Spd
km/h
Gust
km/h
Spd
kts
Gust
kts
14/11:30pm 8.9 4.9 -2.1 46 4.1 NNE 9 11 5 6 1020.8 1020.8 0.0
14/11:00pm 9.7 5.4 -1.6 45 4.4 NNE 11 13 6 7 1021.1 1021.1 0.0

Other Formats:

Comma delimited format used in spreadsheet applications
http://www.bom.gov.au/fwo/IDS60801/IDS60801.95480.axf

JavaScript Object Notation format (JSON) in row-major order
http://www.bom.gov.au/fwo/IDS60801/IDS60801.95480.json